Flight Track Log - Related Links

Times and Time Zones

All times are in EDT time to prevent confusion due to time zone crossing. See the SKW7380 flight status page for this flight to view local times or setup timezone preferences in your user account.


Time Position Orientation Groundspeed Altitude Reporting Facility
EDT Latitude Longitude Course Direction KTS MPH feet Rate Location/Type
Tue 07:14:29 PM 40.8086 -112.0014 189° South 160 184 5,100  Level Salt Lake Center
Tue 07:16:07 PM 40.8253 -112.0944 283° West 242 278 7,800 2,015 Climbing Salt Lake Center
Tue 07:16:43 PM 40.8217 -112.1556 266° West 267 307 9,600 3,049 Climbing Salt Lake Center
Tue 07:17:00 PM 40.6901 -112.2816 191° South  Level FlightAware Approximate
Tue 07:17:08 PM 40.8147 -112.1917 256° West 267 307 10,900  Level Salt Lake Center
Tue 07:18:00 PM 40.5837 -112.2952 186° South  Level FlightAware Approximate
Tue 07:18:10 PM 40.7644 -112.2644 228° Southwest 278 320 13,700  Level Salt Lake Center
Tue 07:19:00 PM 40.4786 -112.3210 189° South  Level FlightAware Approximate
Tue 07:19:11 PM 40.6844 -112.2925 195° South 300 345 16,100  Level Salt Lake Center
Tue 07:20:13 PM 40.5994 -112.3067 187° South 310 357 17,800 1,512 Climbing Salt Lake Center
Tue 07:21:14 PM 40.5042 -112.3289 190° South 349 402 19,200 1,561 Climbing Salt Lake Center
Tue 07:22:16 PM 40.3858 -112.3619 192° South 364 419 21,000 1,597 Climbing Salt Lake Center
Tue 07:23:18 PM 40.2819 -112.3914 192° South 381 438 22,500 976 Climbing Salt Lake Center
Tue 07:24:19 PM 40.1761 -112.4208 192° South 390 449 23,000 244 Climbing Salt Lake Center
Tue 07:25:21 PM 40.0653 -112.4517 192° South 413 475 23,000  Level Salt Lake Center
Tue 07:26:23 PM 39.9531 -112.4822 192° South 412 474 23,000  Level Salt Lake Center
Tue 07:27:24 PM 39.8503 -112.5122 193° South 384 442 23,000  Level Salt Lake Center
Tue 07:28:26 PM 39.7511 -112.5397 192° South 368 423 23,000 195 Level Salt Lake Center
Tue 07:29:27 PM 39.6303 -112.5719 192° South 371 427 23,400 927 Climbing Salt Lake Center
Tue 07:30:29 PM 39.5269 -112.5936 189° South 375 432 24,900 1,258 Climbing Salt Lake Center
Tue 07:31:31 PM 39.4225 -112.6147 189° South 379 436 26,000 537 Climbing Salt Lake Center
Tue 07:32:32 PM 39.3147 -112.6369 189° South 390 449 26,000  Level Salt Lake Center
Tue 07:33:34 PM 39.1894 -112.6611 189° South 412 474 26,000 -48 Level Salt Lake Center
Tue 07:34:36 PM 39.0803 -112.6908 192° South 405 466 25,900 -1,122 Descending Salt Lake Center
Tue 07:35:37 PM 38.9797 -112.7339 198° South 386 444 23,700 -1,902 Descending Salt Lake Center
Tue 07:36:39 PM 38.8858 -112.7758 199° South 366 421 22,000 -829 Descending Salt Lake Center
Tue 07:37:40 PM 38.7986 -112.8161 200° South 342 394 22,000  Level Salt Lake Center
Tue 07:38:42 PM 38.7114 -112.8547 199° South 334 384 22,000 -1,210 Level Salt Lake Center
Tue 07:39:44 PM 38.6203 -112.8972 200° South 299 344 19,500 -2,585 Descending Salt Lake Center
Tue 07:40:45 PM 38.5461 -112.9306 199° South 287 330 16,700 -2,683 Descending Salt Lake Center
Tue 07:41:47 PM 38.4739 -112.9628 199° South 282 325 14,000 -2,256 Descending Salt Lake Center
Tue 07:42:50 PM 38.4050 -112.9939 199° South 273 314 12,000 -976 Descending Salt Lake Center
Tue 07:43:50 PM 38.3433 -113.0219 200° South 257 296 12,000 -298 Level Salt Lake Center
Tue 07:44:51 PM 38.2831 -113.0139 174° South 235 270 11,400 -585 Descending Salt Lake Center
Tue 07:45:53 PM 38.2214 -112.9958 167° South 230 265 10,800 -581 Descending Salt Lake Center
Tue 07:46:55 PM 38.1572 -112.9781 168° South 232 267 10,200 -634 Descending Salt Lake Center
Tue 07:47:56 PM 38.0789 -112.9569 168° South 236 272 9,500 -537 Descending Salt Lake Center
Tue 07:48:58 PM 38.0092 -112.9381 168° South 245 282 9,100 -194 Descending Salt Lake Center
Tue 07:50:00 PM 37.9383 -112.9189 168° South 253 291 9,100  Level Salt Lake Center
Tue 07:51:01 PM 37.8814 -112.9469 201° Southwest 239 275 9,100 -341 Level Salt Lake Center
Tue 07:52:03 PM 37.8269 -112.9919 213° Southwest 230 265 8,400 -532 Descending Salt Lake Center
Tue 07:53:05 PM 37.7808 -113.0289 212° Southwest 228 262 8,000 -387 Descending Salt Lake Center

Login

Don't have an account? Register now (free) for customized features, flight alerts, and more!